Time;durP1;ratioP1;P1;durP2;ratioP2;P2;SDS_P1;SDS_P2;PMS_P1;PMS_P2;Temp;Humidity;BMP_temperature;BMP_pressure;BME280_temperature;BME280_humidity;BME280_pressure;Samples;Min_cycle;Max_cycle;Signal;HPM_P1;HPM_P2
2022/03/04 00:02:06;;;;;;;21.77;11.80;;;;;;;6.03;47.69;100846.81;5168791;27;20212;-61
2022/03/04 00:04:38;;;;;;;24.87;12.43;;;;;;;6.10;47.53;100849.84;5156694;27;20204;-62
2022/03/04 00:07:06;;;;;;;21.37;12.47;;;;;;;6.02;47.64;100847.75;5168699;27;20215;-61
2022/03/04 00:09:34;;;;;;;26.53;13.00;;;;;;;6.06;47.53;100852.81;5168715;27;20718;-62
2022/03/04 00:12:07;;;;;;;22.33;12.23;;;;;;;6.01;47.76;100858.38;5166245;27;20299;-62
2022/03/04 00:14:34;;;;;;;21.23;11.53;;;;;;;6.01;47.93;100850.50;5166766;27;20624;-63
2022/03/04 00:17:02;;;;;;;20.90;11.50;;;;;;;5.84;48.20;100854.28;5170137;27;20226;-61
2022/03/04 00:19:30;;;;;;;23.67;12.30;;;;;;;5.89;48.09;100856.66;5161736;27;20226;-62
2022/03/04 00:21:58;;;;;;;23.43;12.53;;;;;;;5.97;47.72;100846.41;5165140;27;20298;-63
2022/03/04 00:24:25;;;;;;;20.20;11.60;;;;;;;5.87;47.89;100850.63;5168611;27;20318;-62
2022/03/04 00:26:53;;;;;;;25.97;12.87;;;;;;;5.89;47.85;100852.19;5165684;27;20213;-61
2022/03/04 00:29:22;;;;;;;21.53;11.83;;;;;;;5.88;47.83;100854.97;5167565;27;20259;-62
2022/03/04 00:31:50;;;;;;;25.27;12.83;;;;;;;5.88;47.90;100849.69;5166541;27;20282;-62
2022/03/04 00:34:18;;;;;;;22.43;12.60;;;;;;;5.83;47.76;100855.25;5165557;27;20498;-61
2022/03/04 00:36:45;;;;;;;21.43;12.33;;;;;;;5.86;47.88;100864.72;5168272;27;20311;-62
2022/03/04 00:39:14;;;;;;;23.93;12.93;;;;;;;5.81;48.13;100858.91;5166619;27;20207;-62
2022/03/04 00:41:43;;;;;;;25.60;12.00;;;;;;;5.86;47.77;100862.09;5164846;27;20698;-62
2022/03/04 00:44:11;;;;;;;23.00;12.30;;;;;;;5.70;48.08;100856.22;5167673;27;20265;-62
2022/03/04 00:46:40;;;;;;;20.23;11.63;;;;;;;5.69;48.09;100858.00;5155723;27;20735;-62
2022/03/04 00:49:08;;;;;;;20.87;12.20;;;;;;;5.71;48.09;100860.53;5158995;27;20207;-62
2022/03/04 00:51:36;;;;;;;22.47;11.87;;;;;;;5.63;48.09;100856.63;5168750;27;20633;-62
2022/03/04 00:54:04;;;;;;;22.00;12.27;;;;;;;5.56;48.57;100852.75;5165275;27;20215;-62
2022/03/04 00:56:31;;;;;;;24.90;12.83;;;;;;;5.58;48.41;100853.50;5164304;27;20247;-62
2022/03/04 00:58:59;;;;;;;19.23;10.83;;;;;;;5.62;48.25;100857.63;5166168;27;20210;-62
2022/03/04 01:01:27;;;;;;;24.43;12.60;;;;;;;5.67;47.99;100858.13;5164941;27;20304;-62
2022/03/04 01:03:56;;;;;;;24.57;13.53;;;;;;;5.68;48.06;100858.97;5161632;27;20215;-62
2022/03/04 01:06:25;;;;;;;24.17;12.93;;;;;;;5.63;48.11;100856.63;5151065;27;20215;-62
2022/03/04 01:08:53;;;;;;;24.33;13.33;;;;;;;5.61;48.15;100849.81;5162531;27;20330;-62
2022/03/04 01:11:21;;;;;;;23.60;12.73;;;;;;;5.55;48.46;100853.69;5165387;27;20728;-62
2022/03/04 01:13:49;;;;;;;23.57;12.27;;;;;;;5.60;48.21;100851.59;5168439;27;20744;-63
2022/03/04 01:16:18;;;;;;;24.17;13.03;;;;;;;5.54;48.36;100856.47;5164537;27;20591;-62
2022/03/04 01:18:46;;;;;;;24.13;12.60;;;;;;;5.59;48.32;100857.81;5164561;27;20488;-62
2022/03/04 01:21:16;;;;;;;24.40;12.97;;;;;;;5.46;49.05;100858.75;5169004;27;20294;-62
2022/03/04 01:23:43;;;;;;;24.70;13.53;;;;;;;5.56;48.52;100850.13;5162174;27;20739;-62
2022/03/04 01:26:11;;;;;;;24.27;13.70;;;;;;;5.20;49.13;100852.66;5165829;27;20731;-62
2022/03/04 01:28:39;;;;;;;25.57;12.80;;;;;;;5.54;48.50;100849.38;5169027;27;20199;-62
2022/03/04 01:31:09;;;;;;;24.17;11.77;;;;;;;5.25;48.99;100853.19;5161961;27;20222;-61
2022/03/04 01:33:37;;;;;;;28.43;13.77;;;;;;;5.48;48.75;100847.19;5155768;27;20252;-61
2022/03/04 01:36:24;;;;;;;25.50;13.67;;;;;;;5.46;48.64;100842.97;5158963;27;20208;-61
2022/03/04 01:38:52;;;;;;;24.27;13.37;;;;;;;5.54;48.76;100840.69;5164792;27;20236;-61
2022/03/04 01:41:20;;;;;;;26.23;14.00;;;;;;;5.29;49.16;100841.50;5166883;27;20219;-61
2022/03/04 01:43:53;;;;;;;23.63;13.17;;;;;;;5.43;48.90;100838.78;5156752;27;20310;-62
2022/03/04 01:46:28;;;;;;;30.27;14.50;;;;;;;5.22;49.46;100835.84;5162267;27;20203;-61
2022/03/04 01:48:56;;;;;;;26.80;13.47;;;;;;;5.39;49.23;100839.94;5157229;27;20298;-61
2022/03/04 01:51:25;;;;;;;25.50;13.57;;;;;;;5.37;49.05;100830.47;5167983;27;20248;-61
2022/03/04 01:53:54;;;;;;;27.60;13.63;;;;;;;5.38;49.05;100830.34;5162227;27;20211;-63
2022/03/04 01:56:24;;;;;;;26.57;14.37;;;;;;;5.45;49.04;100830.78;5165697;27;20253;-61
2022/03/04 01:58:52;;;;;;;25.80;14.37;;;;;;;5.45;49.27;100833.44;5162139;27;20346;-61
2022/03/04 02:01:20;;;;;;;29.20;15.00;;;;;;;5.33;49.51;100831.63;5165137;27;20251;-61
2022/03/04 02:03:49;;;;;;;26.40;14.13;;;;;;;5.40;49.67;100833.72;5156420;27;20218;-61
2022/03/04 02:06:17;;;;;;;29.67;15.23;;;;;;;5.33;49.81;100831.63;5165359;27;20210;-61
2022/03/04 02:08:46;;;;;;;25.90;14.13;;;;;;;5.26;49.76;100831.22;5163389;27;20760;-62
2022/03/04 02:11:14;;;;;;;27.17;14.03;;;;;;;5.19;50.12;100840.47;5162402;27;20567;-62
2022/03/04 02:13:42;;;;;;;27.03;14.37;;;;;;;5.11;50.17;100843.59;5165519;27;20231;-61
2022/03/04 02:16:14;;;;;;;30.00;15.70;;;;;;;5.33;49.47;100832.47;5164059;27;20694;-61
2022/03/04 02:18:42;;;;;;;27.80;14.97;;;;;;;5.24;49.15;100827.84;5166702;27;20400;-61
2022/03/04 02:21:11;;;;;;;25.83;14.00;;;;;;;5.26;49.19;100832.06;5169673;27;20628;-61
2022/03/04 02:23:43;;;;;;;29.43;14.23;;;;;;;5.20;49.32;100836.88;5167916;27;20217;-61
2022/03/04 02:26:11;;;;;;;27.97;14.77;;;;;;;5.23;49.50;100836.69;5169927;27;20213;-61
2022/03/04 02:28:38;;;;;;;28.70;14.93;;;;;;;5.31;48.77;100844.88;5156690;27;20203;-61
2022/03/04 02:31:09;;;;;;;28.43;14.80;;;;;;;4.90;49.75;100835.41;5166500;27;20208;-61
2022/03/04 02:33:36;;;;;;;23.93;13.37;;;;;;;4.96;49.46;100844.66;5169463;27;20239;-63
2022/03/04 02:36:09;;;;;;;28.03;14.83;;;;;;;4.93;49.95;100837.81;5169112;27;20263;-62
2022/03/04 02:38:37;;;;;;;26.60;14.60;;;;;;;5.01;49.89;100836.47;5165676;27;20626;-62
2022/03/04 02:41:06;;;;;;;29.67;15.03;;;;;;;5.10;49.83;100841.91;5165561;27;20213;-62
2022/03/04 02:43:35;;;;;;;27.87;15.23;;;;;;;5.00;50.16;100840.03;5162334;27;20321;-63
2022/03/04 02:46:04;;;;;;;28.77;14.43;;;;;;;5.06;49.87;100837.84;5166081;27;20203;-62
2022/03/04 02:48:32;;;;;;;24.57;14.03;;;;;;;4.92;50.52;100833.50;5158013;27;20338;-62
2022/03/04 02:51:00;;;;;;;28.27;15.37;;;;;;;5.06;49.96;100834.34;5171879;27;20290;-62
2022/03/04 02:53:34;;;;;;;30.67;16.40;;;;;;;5.05;50.32;100832.69;5166102;27;20213;-62
2022/03/04 02:56:02;;;;;;;29.37;15.03;;;;;;;4.95;50.59;100829.81;5171401;27;20216;-63
2022/03/04 02:58:32;;;;;;;27.17;14.90;;;;;;;4.89;50.49;100832.88;5167494;27;20684;-63
2022/03/04 03:01:02;;;;;;;24.50;14.67;;;;;;;4.90;50.41;100830.16;5165966;27;20240;-62
2022/03/04 03:03:31;;;;;;;28.43;15.10;;;;;;;4.93;50.48;100831.72;5170710;27;20247;-62
2022/03/04 03:05:59;;;;;;;29.53;14.90;;;;;;;4.89;50.58;100828.47;5164792;27;20219;-62
2022/03/04 03:08:28;;;;;;;27.47;14.13;;;;;;;4.93;50.49;100829.91;5168355;27;20722;-62
2022/03/04 03:11:00;;;;;;;29.23;16.53;;;;;;;4.82;50.61;100837.72;5166611;27;20606;-62
2022/03/04 03:13:27;;;;;;;29.33;15.00;;;;;;;4.78;50.42;100824.84;5168744;27;20309;-62
2022/03/04 03:15:57;;;;;;;28.00;14.37;;;;;;;4.86;50.58;100828.66;5167787;27;20206;-62
2022/03/04 03:18:25;;;;;;;30.50;15.50;;;;;;;4.72;50.94;100833.16;5169832;27;20392;-62
2022/03/04 03:20:54;;;;;;;30.90;15.37;;;;;;;4.77;50.97;100829.28;5168258;27;20230;-63
2022/03/04 03:23:22;;;;;;;30.47;14.50;;;;;;;4.69;51.45;100831.56;5165429;27;22308;-62
2022/03/04 03:25:50;;;;;;;26.37;14.40;;;;;;;4.76;51.17;100826.75;5156342;27;20236;-62
2022/03/04 03:28:17;;;;;;;31.73;15.53;;;;;;;4.77;50.90;100829.28;5168497;27;20198;-63
2022/03/04 03:30:45;;;;;;;26.37;14.90;;;;;;;4.77;51.13;100829.28;5166138;27;20270;-63
2022/03/04 03:33:18;;;;;;;25.13;14.00;;;;;;;4.69;51.47;100826.31;5168197;27;20233;-61
2022/03/04 03:35:48;;;;;;;24.77;13.87;;;;;;;4.63;51.39;100826.72;5166201;27;20306;-62
2022/03/04 03:38:18;;;;;;;27.90;15.33;;;;;;;4.55;51.51;100829.03;5160137;27;20254;-62
2022/03/04 03:40:48;;;;;;;28.53;14.63;;;;;;;4.40;52.01;100827.38;5170051;27;20295;-62
2022/03/04 03:43:36;;;;;;;26.10;13.93;;;;;;;4.64;51.40;100823.16;5167297;27;20236;-62
2022/03/04 03:46:05;;;;;;;30.53;14.63;;;;;;;4.66;51.23;100818.63;5166785;27;20248;-62
2022/03/04 03:48:34;;;;;;;26.77;14.33;;;;;;;4.61;51.34;100817.25;5168036;27;20569;-62
2022/03/04 03:51:04;;;;;;;25.27;13.53;;;;;;;4.59;51.47;100817.34;5169303;27;20212;-61
2022/03/04 03:53:32;;;;;;;27.23;14.50;;;;;;;4.50;51.97;100820.59;5165739;27;20207;-62
2022/03/04 03:56:10;;;;;;;24.93;14.23;;;;;;;4.51;51.84;100830.16;5169945;27;20293;-62
2022/03/04 03:58:40;;;;;;;27.00;14.57;;;;;;;4.44;51.61;100827.09;5165478;27;20220;-61
2022/03/04 04:01:09;;;;;;;30.87;14.80;;;;;;;4.56;51.25;100824.63;5163253;27;20267;-63
2022/03/04 04:03:38;;;;;;;27.30;14.57;;;;;;;4.42;51.75;100831.59;5167209;27;20654;-64
2022/03/04 04:06:07;;;;;;;27.20;14.07;;;;;;;4.29;51.99;100830.72;5168248;27;20256;-63
2022/03/04 04:08:35;;;;;;;28.97;16.10;;;;;;;4.41;51.68;100836.94;5163851;27;20518;-64
2022/03/04 04:11:03;;;;;;;27.83;15.40;;;;;;;4.26;51.88;100840.56;5158812;27;20201;-63
2022/03/04 04:13:31;;;;;;;26.97;14.67;;;;;;;4.31;51.79;100841.13;5168037;27;20260;-62
2022/03/04 04:15:59;;;;;;;27.67;14.53;;;;;;;4.33;51.65;100849.72;5158639;27;20212;-62
2022/03/04 04:18:28;;;;;;;28.23;14.47;;;;;;;4.34;51.67;100841.75;5167116;27;20293;-63
2022/03/04 04:21:00;;;;;;;26.27;14.30;;;;;;;4.36;51.72;100852.16;5168663;27;20201;-62
2022/03/04 04:23:28;;;;;;;30.13;15.23;;;;;;;4.35;51.77;100850.47;5163976;27;20861;-62
2022/03/04 04:25:58;;;;;;;28.50;15.33;;;;;;;4.33;51.64;100844.47;5169728;27;20650;-61
2022/03/04 04:28:26;;;;;;;27.70;14.77;;;;;;;4.27;51.80;100839.63;5166875;27;20205;-64
2022/03/04 04:31:17;;;;;;;29.20;14.93;;;;;;;4.30;51.56;100850.78;5166615;27;20208;-63
2022/03/04 04:33:45;;;;;;;27.03;14.53;;;;;;;4.26;51.76;100853.69;5159900;27;20223;-61
2022/03/04 04:36:15;;;;;;;30.97;14.60;;;;;;;4.27;51.88;100858.00;5168901;27;20230;-63
2022/03/04 04:41:36;;;;;;;30.63;15.93;;;;;;;4.25;51.90;100865.13;5165474;27;20645;-63
2022/03/04 04:44:04;;;;;;;29.03;14.60;;;;;;;4.21;52.12;100866.28;5166350;27;20252;-62
2022/03/04 04:46:33;;;;;;;26.07;14.57;;;;;;;4.17;52.04;100870.88;5165624;27;20208;-62
2022/03/04 04:49:05;;;;;;;28.27;14.50;;;;;;;4.05;52.35;100871.63;5165132;27;20676;-62
2022/03/04 04:51:40;;;;;;;33.00;14.97;;;;;;;4.05;52.53;100869.03;5169634;27;20276;-62
2022/03/04 04:54:14;;;;;;;28.77;15.17;;;;;;;4.11;52.28;100872.13;5162813;27;20246;-63
2022/03/04 04:56:51;;;;;;;25.63;14.93;;;;;;;4.06;52.22;100874.19;5163618;27;20216;-63
2022/03/04 04:59:21;;;;;;;28.10;15.70;;;;;;;3.88;52.37;100867.44;5165700;27;20217;-64
2022/03/04 05:01:49;;;;;;;30.63;15.40;;;;;;;4.06;52.24;100881.19;5162084;27;20251;-61
2022/03/04 05:04:17;;;;;;;31.90;16.17;;;;;;;3.97;52.64;100880.00;5166853;27;20777;-62
2022/03/04 05:06:55;;;;;;;33.13;16.10;;;;;;;4.07;52.26;100878.50;5165597;27;20201;-62
2022/03/04 05:09:50;;;;;;;29.20;14.47;;;;;;;4.08;52.21;100884.59;5164123;27;20196;-62
2022/03/04 05:12:19;;;;;;;29.37;15.00;;;;;;;4.02;52.46;100887.59;5159987;27;20205;-63
2022/03/04 05:14:51;;;;;;;35.77;16.37;;;;;;;4.01;52.67;100881.50;5161884;27;20300;-62
2022/03/04 05:17:29;;;;;;;26.07;14.70;;;;;;;4.05;52.31;100884.75;5162829;27;20583;-60
2022/03/04 05:20:21;;;;;;;30.33;15.47;;;;;;;3.95;52.81;100881.91;5160419;27;20405;-62
2022/03/04 05:22:50;;;;;;;28.73;16.03;;;;;;;4.03;52.50;100887.50;5165657;27;20232;-62
2022/03/04 05:25:33;;;;;;;33.23;16.40;;;;;;;3.88;53.02;100896.31;5164966;27;20242;-62
2022/03/04 05:28:22;;;;;;;26.90;15.20;;;;;;;3.92;52.71;100892.56;5164122;27;20708;-65
2022/03/04 05:31:13;;;;;;;30.17;14.87;;;;;;;3.88;52.82;100891.06;5154692;27;20701;-63
2022/03/04 05:33:53;;;;;;;29.73;14.80;;;;;;;3.86;52.95;100892.13;5166950;27;20219;-63
2022/03/04 05:36:22;;;;;;;27.33;14.27;;;;;;;3.89;52.51;100895.38;5162790;27;20212;-62
2022/03/04 05:38:54;;;;;;;35.60;15.67;;;;;;;3.85;52.87;100896.53;5154144;27;20261;-61
2022/03/04 05:41:23;;;;;;;29.13;14.57;;;;;;;3.80;52.97;100893.31;5167728;27;20242;-64
2022/03/04 05:43:51;;;;;;;27.60;15.70;;;;;;;3.96;52.89;100894.06;5161967;27;20227;-64
2022/03/04 05:46:19;;;;;;;31.37;16.57;;;;;;;3.96;52.47;100894.06;5164379;27;20291;-62
2022/03/04 05:48:47;;;;;;;29.37;15.50;;;;;;;3.94;52.90;100895.97;5166686;27;20196;-61
2022/03/04 05:51:19;;;;;;;33.93;15.13;;;;;;;3.87;53.07;100907.75;5165374;27;20214;-63
2022/03/04 05:53:49;;;;;;;31.57;16.07;;;;;;;3.93;53.13;100899.50;5160982;27;20231;-62
2022/03/04 05:56:19;;;;;;;28.20;15.43;;;;;;;3.87;52.90;100899.88;5166710;27;20716;-63
2022/03/04 05:58:47;;;;;;;25.80;14.30;;;;;;;3.89;52.97;100902.41;5159470;27;20248;-62
2022/03/04 06:01:15;;;;;;;29.00;15.47;;;;;;;3.79;53.12;100905.59;5162001;27;20671;-64
2022/03/04 06:03:43;;;;;;;28.63;16.17;;;;;;;3.79;53.03;100905.59;5165689;27;20216;-62
2022/03/04 06:06:12;;;;;;;32.20;16.67;;;;;;;3.78;53.23;100908.34;5165333;27;20211;-64
2022/03/04 06:08:40;;;;;;;30.90;16.07;;;;;;;3.84;53.10;100913.19;5114061;27;1402925;-63
2022/03/04 06:11:08;;;;;;;28.80;15.80;;;;;;;3.84;53.06;100909.72;5169077;27;20881;-62
2022/03/04 06:13:38;;;;;;;33.17;16.27;;;;;;;3.89;53.02;100913.75;5162500;27;20203;-63
2022/03/04 06:16:06;;;;;;;32.07;16.60;;;;;;;3.82;53.13;100917.69;5166251;27;20576;-61
2022/03/04 06:18:38;;;;;;;28.53;15.07;;;;;;;3.85;52.96;100917.50;5166715;27;20607;-61
2022/03/04 06:21:05;;;;;;;33.20;16.87;;;;;;;3.84;52.54;100920.22;5163077;27;20228;-62
2022/03/04 06:23:34;;;;;;;33.07;16.70;;;;;;;3.82;53.00;100917.69;5163416;27;20208;-63
2022/03/04 06:26:02;;;;;;;33.60;16.83;;;;;;;3.71;53.29;100930.59;5163122;27;20209;-62
2022/03/04 06:28:30;;;;;;;34.90;17.67;;;;;;;3.80;53.04;100930.06;5162684;27;20243;-63
2022/03/04 06:31:00;;;;;;;36.47;16.93;;;;;;;3.82;53.21;100938.69;5166175;27;20204;-61
2022/03/04 06:33:35;;;;;;;30.67;16.20;;;;;;;3.71;53.92;100938.47;5163469;27;20299;-62
2022/03/04 06:36:06;;;;;;;33.40;16.07;;;;;;;3.84;53.23;100939.44;5162670;27;20214;-62
2022/03/04 06:38:42;;;;;;;31.37;16.83;;;;;;;3.53;53.88;100947.44;5165336;27;20716;-62
2022/03/04 06:41:15;;;;;;;34.80;17.20;;;;;;;3.78;53.69;100951.13;5166013;27;20272;-63
2022/03/04 06:43:45;;;;;;;26.70;15.20;;;;;;;3.79;53.46;100962.47;5164535;27;20261;-62
2022/03/04 06:46:18;;;;;;;30.83;17.83;;;;;;;3.89;53.48;100963.59;5164962;27;20279;-63
2022/03/04 06:48:46;;;;;;;32.53;16.73;;;;;;;3.92;53.54;100966.03;5166693;27;20229;-61
2022/03/04 06:51:38;;;;;;;30.97;17.30;;;;;;;3.83;53.79;100974.47;5165771;27;20207;-62
2022/03/04 06:54:07;;;;;;;30.70;15.83;;;;;;;3.79;53.71;100978.19;5161023;27;20208;-63
2022/03/04 06:56:38;;;;;;;34.70;16.87;;;;;;;3.89;53.42;100976.72;5166852;27;20213;-62
2022/03/04 06:59:09;;;;;;;30.53;16.07;;;;;;;3.87;53.58;100981.22;5163265;27;20215;-64
2022/03/04 07:01:40;;;;;;;30.47;16.33;;;;;;;3.95;53.37;100986.84;5162614;27;20239;-61
2022/03/04 07:04:11;;;;;;;34.57;16.90;;;;;;;3.98;53.17;100978.78;5166163;27;20641;-61
2022/03/04 07:06:45;;;;;;;32.40;16.57;;;;;;;3.67;53.98;100986.84;5160657;27;20287;-62
2022/03/04 07:09:16;;;;;;;31.53;17.10;;;;;;;3.92;53.96;100992.28;5168802;27;20246;-62
2022/03/04 07:12:01;;;;;;;;;;;;;;;;;;;;;
2022/03/04 07:14:28;;;;;;;31.40;16.07;;;;;;;3.99;53.46;100987.50;5165661;27;20537;-62
2022/03/04 07:17:04;;;;;;;32.57;17.17;;;;;;;3.89;54.38;101000.31;5167073;27;20211;-62
2022/03/04 07:19:34;;;;;;;34.00;16.17;;;;;;;4.05;53.68;100998.47;5169052;27;20212;-61
2022/03/04 07:22:06;;;;;;;34.63;16.90;;;;;;;3.92;54.22;101000.16;5166171;27;20324;-62
2022/03/04 07:24:38;;;;;;;34.47;16.97;;;;;;;4.12;53.91;100997.16;5167309;27;20211;-61
2022/03/04 07:27:06;;;;;;;34.57;17.40;;;;;;;4.29;53.70;101000.53;5167398;27;20291;-60
2022/03/04 07:29:47;;;;;;;36.37;17.63;;;;;;;4.39;53.38;101006.91;5169463;27;20264;-61
2022/03/04 07:32:18;;;;;;;33.67;17.10;;;;;;;4.40;53.42;101004.16;5162259;27;20326;-60
2022/03/04 07:34:51;;;;;;;31.17;17.27;;;;;;;4.36;53.64;101005.31;5166072;27;20213;-61
2022/03/04 07:37:20;;;;;;;33.73;17.83;;;;;;;4.33;53.91;101013.34;5164997;27;20233;-61
2022/03/04 07:39:47;;;;;;;32.33;17.30;;;;;;;4.54;53.13;101011.19;5167933;27;20210;-61
2022/03/04 07:42:17;;;;;;;30.30;16.27;;;;;;;4.53;53.32;101014.75;5167743;27;20573;-62
2022/03/04 07:44:45;;;;;;;33.47;17.97;;;;;;;4.60;52.98;101018.66;5167546;27;20262;-62
2022/03/04 07:47:13;;;;;;;34.63;17.60;;;;;;;4.52;53.33;101020.94;5165884;27;20265;-62
2022/03/04 07:49:44;;;;;;;32.03;17.40;;;;;;;4.50;53.58;101020.19;5170043;27;20216;-63
2022/03/04 07:52:12;;;;;;;33.13;18.77;;;;;;;4.64;53.47;101022.81;5168390;27;20640;-62
2022/03/04 07:54:39;;;;;;;37.47;18.50;;;;;;;4.72;53.32;101022.31;5165748;27;20213;-62
2022/03/04 07:57:07;;;;;;;32.47;17.87;;;;;;;4.75;53.06;101022.94;5162450;27;20292;-63
2022/03/04 07:59:35;;;;;;;33.27;17.60;;;;;;;4.51;53.92;101029.75;5167335;27;20223;-62
2022/03/04 08:02:07;;;;;;;34.07;17.70;;;;;;;4.79;53.62;101040.22;5167258;27;20588;-63
2022/03/04 08:04:35;;;;;;;31.43;17.73;;;;;;;4.63;53.88;101042.13;5166496;27;20214;-62
2022/03/04 08:07:06;;;;;;;31.33;18.70;;;;;;;4.93;53.73;101040.16;5166814;27;20898;-61
2022/03/04 08:09:34;;;;;;;36.23;18.83;;;;;;;5.12;53.17;101044.25;5166861;27;20224;-62
2022/03/04 08:12:02;;;;;;;34.97;18.83;;;;;;;5.19;53.50;101051.63;5169663;27;20204;-63
2022/03/04 08:14:30;;;;;;;33.70;19.00;;;;;;;5.06;53.96;101049.91;5165235;27;20309;-62
2022/03/04 08:16:58;;;;;;;34.20;19.20;;;;;;;5.54;53.00;101041.41;5164713;27;20297;-62
2022/03/04 08:19:25;;;;;;;35.73;20.13;;;;;;;5.65;52.47;101044.19;5156928;27;20268;-62
2022/03/04 08:21:53;;;;;;;40.90;22.33;;;;;;;6.02;51.89;101041.72;5163956;27;20582;-62
2022/03/04 08:24:42;;;;;;;37.03;21.27;;;;;;;6.27;50.89;101041.72;5163945;27;20207;-61
2022/03/04 08:27:10;;;;;;;37.90;21.37;;;;;;;8.75;45.55;101041.56;5168627;27;20212;-62
2022/03/04 08:29:37;;;;;;;35.57;20.73;;;;;;;9.02;43.92;101039.34;5166365;27;20235;-62
2022/03/04 08:32:06;;;;;;;41.33;22.57;;;;;;;8.57;44.78;101038.59;5164747;27;20217;-62
2022/03/04 08:34:33;;;;;;;37.33;21.13;;;;;;;7.83;46.25;101050.50;5168946;27;20218;-62
2022/03/04 08:37:02;;;;;;;35.80;21.23;;;;;;;7.49;47.40;101048.69;5166672;27;20215;-62
2022/03/04 08:39:30;;;;;;;36.97;22.60;;;;;;;8.24;46.00;101043.84;5163982;27;20239;-63
2022/03/04 08:41:59;;;;;;;37.37;21.67;;;;;;;8.94;44.64;101035.66;5169175;27;20227;-62
2022/03/04 08:44:27;;;;;;;37.60;21.73;;;;;;;8.58;45.17;101047.34;5166392;27;20219;-62
2022/03/04 08:46:55;;;;;;;35.77;22.53;;;;;;;8.70;45.59;101038.47;5166464;27;20214;-62
2022/03/04 08:49:22;;;;;;;39.73;22.33;;;;;;;11.65;39.31;101042.94;5169186;27;20310;-63
2022/03/04 08:51:50;;;;;;;38.23;22.33;;;;;;;13.98;35.53;101040.75;5162373;27;20201;-63
2022/03/04 08:54:18;;;;;;;35.20;23.53;;;;;;;14.56;33.72;101028.44;5164943;27;20612;-62
2022/03/04 08:56:48;;;;;;;35.33;21.53;;;;;;;17.30;29.58;101030.97;5164890;27;20580;-63
2022/03/04 08:59:17;;;;;;;35.30;23.77;;;;;;;19.04;27.06;101027.00;5165697;27;20247;-62
2022/03/04 09:01:45;;;;;;;34.67;23.80;;;;;;;18.87;26.96;101032.78;5165081;27;20325;-63
2022/03/04 09:04:14;;;;;;;32.43;23.90;;;;;;;17.24;28.93;101044.22;5166024;27;20204;-62
2022/03/04 09:06:46;;;;;;;36.87;25.03;;;;;;;19.77;25.99;101036.66;5161255;27;20218;-63
2022/03/04 09:09:28;;;;;;;34.17;25.13;;;;;;;17.15;28.34;101048.81;5165363;27;20259;-64
2022/03/04 09:12:03;;;;;;;34.70;24.53;;;;;;;19.15;26.79;101036.44;5164033;27;20192;-62
2022/03/04 09:14:37;;;;;;;34.97;24.70;;;;;;;19.84;25.54;101042.91;5155390;27;20270;-63
2022/03/04 09:17:05;;;;;;;39.87;26.20;;;;;;;20.77;24.53;101035.41;5155833;27;20209;-62
2022/03/04 09:19:39;;;;;;;36.23;25.80;;;;;;;19.07;26.12;101034.69;5168715;27;20232;-62
2022/03/04 09:22:26;;;;;;;33.47;25.23;;;;;;;17.88;27.54;101042.09;5165753;27;20234;-63
2022/03/04 09:25:03;;;;;;;31.40;24.90;;;;;;;20.92;24.37;101036.13;5162143;27;20200;-63
2022/03/04 09:27:39;;;;;;;33.72;25.77;;;;;;;21.63;23.36;101039.22;5168241;27;20214;-63
2022/03/04 09:30:11;;;;;;;32.35;25.42;;;;;;;20.26;24.38;101039.28;5163932;27;21029;-64
2022/03/04 09:32:39;;;;;;;34.28;25.50;;;;;;;15.92;29.20;101038.66;5166176;27;20326;-64
2022/03/04 09:35:08;;;;;;;32.22;24.88;;;;;;;17.64;27.58;101035.94;5166693;27;20233;-64
2022/03/04 09:37:38;;;;;;;31.48;24.55;;;;;;;17.72;27.36;101032.34;5164947;27;20227;-63
2022/03/04 09:40:09;;;;;;;34.53;25.73;;;;;;;20.34;24.49;101034.75;5164269;27;20234;-62
2022/03/04 09:42:41;;;;;;;31.67;25.17;;;;;;;19.03;25.93;101028.00;5167608;27;20228;-62
2022/03/04 09:45:11;;;;;;;32.50;25.40;;;;;;;17.92;27.37;101032.69;5165301;27;20223;-62
2022/03/04 09:47:43;;;;;;;31.65;25.88;;;;;;;18.68;26.95;101023.47;5163249;27;20266;-63
2022/03/04 09:50:19;;;;;;;33.08;26.67;;;;;;;20.87;24.26;101017.00;5166800;27;20480;-63
2022/03/04 09:52:52;;;;;;;33.88;26.48;;;;;;;20.56;24.23;101020.22;5165612;27;20670;-63
2022/03/04 09:55:23;;;;;;;29.73;25.60;;;;;;;19.55;25.38;101032.28;5163658;27;20248;-63
2022/03/04 09:57:50;;;;;;;32.38;26.20;;;;;;;19.36;25.29;101025.66;5163478;27;20196;-63
2022/03/04 10:00:19;;;;;;;32.45;26.10;;;;;;;19.03;25.88;101028.00;5165429;27;20210;-63
2022/03/04 10:02:56;;;;;;;33.95;26.45;;;;;;;18.89;26.28;101020.84;5165335;27;20284;-63
2022/03/04 10:05:24;;;;;;;31.58;25.52;;;;;;;22.61;22.35;101024.75;5164048;27;20226;-63
2022/03/04 10:07:56;;;;;;;32.80;26.25;;;;;;;24.24;20.58;101018.50;5164448;27;20236;-63
2022/03/04 10:10:29;;;;;;;31.17;25.83;;;;;;;23.76;20.97;101020.16;5162471;27;20613;-63
2022/03/04 10:13:01;;;;;;;32.05;26.45;;;;;;;22.09;21.87;101013.03;5163916;27;20551;-63
2022/03/04 10:15:34;;;;;;;31.83;27.23;;;;;;;22.59;21.89;101007.09;5165853;27;20196;-64
2022/03/04 10:18:04;;;;;;;31.42;26.25;;;;;;;21.40;22.43;101018.84;5165464;27;20200;-64
2022/03/04 10:20:43;;;;;;;31.67;26.48;;;;;;;18.82;25.52;101019.09;5163959;27;20295;-63
2022/03/04 10:23:18;;;;;;;32.75;25.70;;;;;;;16.88;28.34;101022.53;5149879;27;20399;-63
2022/03/04 10:25:51;;;;;;;36.70;28.55;;;;;;;18.13;26.73;101019.38;5160981;27;20199;-63
2022/03/04 10:28:23;;;;;;;34.08;26.13;;;;;;;23.40;21.41;101016.22;5162801;27;20203;-65
2022/03/04 10:30:54;;;;;;;32.38;26.52;;;;;;;24.57;20.16;101006.44;5159298;27;20208;-65
2022/03/04 10:33:28;;;;;;;33.75;27.13;;;;;;;23.83;20.26;101005.53;5164368;27;20219;-64
2022/03/04 10:36:18;;;;;;;32.75;26.73;;;;;;;21.96;22.39;101013.03;5164426;27;20260;-63
2022/03/04 10:39:08;;;;;;;35.25;27.00;;;;;;;19.93;24.24;101011.31;5165516;27;20246;-63
2022/03/04 10:41:49;;;;;;;30.27;25.77;;;;;;;20.22;24.80;100996.78;5161794;27;20730;-64
2022/03/04 10:44:29;;;;;;;32.03;27.17;;;;;;;24.59;20.02;100994.31;5167122;27;20238;-64
2022/03/04 10:47:11;;;;;;;35.78;26.00;;;;;;;23.23;21.07;101002.41;5159636;27;20677;-64
2022/03/04 10:49:39;;;;;;;35.13;26.33;;;;;;;25.52;19.22;100993.84;5170608;27;20628;-64
2022/03/04 10:52:14;;;;;;;31.25;27.10;;;;;;;22.88;20.83;100988.47;5169704;27;20677;-64
2022/03/04 10:55:00;;;;;;;33.60;29.65;;;;;;;17.87;26.48;101009.06;5165765;27;20252;-63
2022/03/04 10:57:43;;;;;;;32.10;26.63;;;;;;;20.83;22.55;101002.28;5167960;27;20767;-64
2022/03/04 11:00:12;;;;;;;35.63;27.67;;;;;;;19.59;23.43;101012.06;5169860;27;20221;-64
2022/03/04 11:02:43;;;;;;;33.13;25.75;;;;;;;18.73;24.94;101008.44;5167926;27;20319;-64
2022/03/04 11:05:25;;;;;;;29.23;25.58;;;;;;;20.58;23.81;101000.09;5166420;27;20214;-64
2022/03/04 11:08:17;;;;;;;30.98;26.55;;;;;;;16.73;27.57;101003.66;5160388;27;20237;-64
2022/03/04 11:13:29;;;;;;;29.65;25.35;;;;;;;16.45;28.73;101005.09;5164683;27;20208;-63
2022/03/04 11:16:05;;;;;;;33.30;26.55;;;;;;;15.10;30.27;101004.91;5169551;27;20206;-63
2022/03/04 11:18:40;;;;;;;29.92;25.95;;;;;;;14.64;31.34;101004.44;5168989;27;20200;-63
2022/03/04 11:21:11;;;;;;;33.03;27.35;;;;;;;15.10;30.97;100999.56;5167147;27;20589;-62
2022/03/04 11:23:47;;;;;;;33.20;26.20;;;;;;;16.93;28.43;100996.88;5168787;27;20227;-62
2022/03/04 11:26:35;;;;;;;38.80;26.42;;;;;;;18.12;27.24;100987.38;5166535;27;20275;-63
2022/03/04 11:29:26;;;;;;;31.75;26.08;;;;;;;18.18;26.75;100979.41;5166129;27;20564;-63
2022/03/04 11:31:54;;;;;;;31.55;26.35;;;;;;;18.02;26.91;100982.28;5157207;27;20688;-63
2022/03/04 11:34:34;;;;;;;34.90;25.83;;;;;;;18.02;27.26;100968.84;5171005;27;20202;-63
2022/03/04 11:37:16;;;;;;;31.35;25.08;;;;;;;17.17;27.89;100973.59;5166668;27;20298;-63
2022/03/04 11:42:56;;;;;;;30.55;25.23;;;;;;;16.67;28.60;100972.25;5085078;28;20270;-63
2022/03/04 11:45:32;;;;;;;32.05;25.73;;;;;;;16.03;28.65;100970.63;5157466;27;20212;-64